Time;durP1;ratioP1;P1;durP2;ratioP2;P2;SDS_P1;SDS_P2;PMS_P1;PMS_P2;Temp;Humidity;BMP_temperature;BMP_pressure;BME280_temperature;BME280_humidity;BME280_pressure;Samples;Min_cycle;Max_cycle;Signal;HPM_P1;HPM_P2
2022/08/14 00:02:06;;;;;;;8.57;7.20;;;;;;;21.25;61.44;100695.03;5060559;28;20227;-83
2022/08/14 00:04:34;;;;;;;9.10;7.40;;;;;;;21.17;61.12;100700.38;5056902;28;20552;-84
2022/08/14 00:07:00;;;;;;;7.97;7.13;;;;;;;21.04;60.89;100701.69;5050441;28;20218;-84
2022/08/14 00:09:27;;;;;;;8.20;6.40;;;;;;;20.94;60.91;100702.84;5050725;28;20201;-83
2022/08/14 00:11:54;;;;;;;7.60;7.00;;;;;;;20.85;61.48;100707.38;5052176;28;20233;-83
2022/08/14 00:14:21;;;;;;;6.93;6.33;;;;;;;20.76;61.67;100711.06;5054890;28;20198;-85
2022/08/14 00:16:49;;;;;;;7.53;6.83;;;;;;;20.72;62.20;100713.22;5035533;28;20786;-83
2022/08/14 00:19:17;;;;;;;7.50;6.73;;;;;;;20.67;62.17;100707.44;5047787;28;20203;-83
2022/08/14 00:21:44;;;;;;;7.20;6.70;;;;;;;20.65;62.70;100711.31;5043041;28;20242;-83
2022/08/14 00:24:10;;;;;;;7.53;6.70;;;;;;;20.65;62.88;100706.75;5050950;28;20217;-83
2022/08/14 00:26:37;;;;;;;7.90;7.07;;;;;;;20.67;63.04;100701.19;5070137;28;20201;-83
2022/08/14 00:29:04;;;;;;;7.97;7.27;;;;;;;20.68;63.35;100702.88;5058410;28;20753;-83
2022/08/14 00:31:30;;;;;;;8.30;7.60;;;;;;;20.70;63.71;100707.13;5043585;28;20208;-83
2022/08/14 00:33:57;;;;;;;10.10;8.10;;;;;;;20.72;63.88;100705.09;5036756;28;20206;-82
2022/08/14 00:36:24;;;;;;;9.83;8.17;;;;;;;20.75;63.63;100703.94;5040774;28;20553;-83
2022/08/14 00:38:51;;;;;;;10.23;8.80;;;;;;;20.75;63.68;100698.53;5053456;28;20203;-84
2022/08/14 00:41:18;;;;;;;9.60;8.70;;;;;;;20.73;63.86;100692.44;5038443;28;20212;-83
2022/08/14 00:43:45;;;;;;;8.27;7.57;;;;;;;20.66;63.50;100688.66;5049395;28;20656;-83
2022/08/14 00:46:13;;;;;;;7.47;6.80;;;;;;;20.57;63.28;100685.06;5048962;28;20677;-85
2022/08/14 00:48:40;;;;;;;8.50;7.67;;;;;;;20.51;63.44;100683.00;5050989;28;20235;-83
2022/08/14 00:51:10;;;;;;;8.53;7.73;;;;;;;20.49;63.85;100676.91;5059528;28;20210;-83
2022/08/14 00:53:38;;;;;;;9.73;8.57;;;;;;;20.49;63.97;100674.19;5058633;28;20229;-83
2022/08/14 00:56:06;;;;;;;9.60;8.70;;;;;;;20.50;64.33;100672.34;5061712;28;20217;-84
2022/08/14 00:58:33;;;;;;;9.67;8.77;;;;;;;20.53;64.58;100678.28;5055505;28;20205;-84
2022/08/14 01:01:03;;;;;;;10.67;9.70;;;;;;;20.54;64.87;100669.16;5047027;28;20238;-83
2022/08/14 01:03:30;;;;;;;10.17;9.20;;;;;;;20.54;64.76;100668.31;5054711;28;20225;-83
2022/08/14 01:05:59;;;;;;;10.00;9.20;;;;;;;20.54;64.70;100668.31;5058954;28;20267;-84
2022/08/14 01:08:27;;;;;;;8.70;8.03;;;;;;;20.49;64.11;100657.09;5044418;28;20224;-83
2022/08/14 01:10:58;;;;;;;9.50;8.03;;;;;;;20.39;63.69;100655.38;5049685;28;20208;-84
2022/08/14 01:13:26;;;;;;;9.40;8.57;;;;;;;20.29;63.65;100653.75;5036470;28;20237;-82
2022/08/14 01:15:56;;;;;;;9.03;8.20;;;;;;;20.17;63.81;100655.88;5045900;28;20876;-85
2022/08/14 01:21:13;;;;;;;9.00;8.10;;;;;;;20.03;64.75;100651.91;5056225;28;20287;-82
2022/08/14 01:23:44;;;;;;;8.70;8.00;;;;;;;19.99;65.01;100655.06;5052957;28;20222;-82
2022/08/14 01:26:11;;;;;;;8.53;7.47;;;;;;;19.94;65.08;100652.84;5046207;28;20555;-84
2022/08/14 01:28:39;;;;;;;9.07;8.17;;;;;;;19.92;65.47;100646.72;5045101;28;20254;-84
2022/08/14 01:31:07;;;;;;;11.47;8.50;;;;;;;19.92;65.85;100654.00;5052685;28;20299;-83
2022/08/14 01:33:40;;;;;;;10.40;9.50;;;;;;;19.93;66.25;100651.13;5049655;28;20611;-85
2022/08/14 01:36:08;;;;;;;10.03;9.13;;;;;;;19.92;66.93;100641.31;5051740;28;20315;-83
2022/08/14 01:38:35;;;;;;;9.13;8.33;;;;;;;19.92;67.33;100641.31;5044729;28;20571;-83
2022/08/14 01:41:07;;;;;;;9.43;8.63;;;;;;;19.92;68.07;100652.13;5045812;28;20215;-82
2022/08/14 01:43:42;;;;;;;9.10;8.30;;;;;;;19.83;66.70;100645.00;5052114;28;20228;-84
2022/08/14 01:46:10;;;;;;;9.77;8.77;;;;;;;19.67;66.80;100643.00;5051330;28;20563;-83
2022/08/14 01:48:40;;;;;;;9.60;8.70;;;;;;;19.59;67.12;100642.06;5054931;28;20219;-82
2022/08/14 01:51:07;;;;;;;9.50;8.57;;;;;;;19.54;67.47;100633.56;5056741;28;20208;-83
2022/08/14 01:53:34;;;;;;;9.57;8.63;;;;;;;19.52;68.02;100633.75;5058688;28;20230;-84
2022/08/14 01:56:05;;;;;;;9.30;8.40;;;;;;;19.52;68.02;100636.47;5059714;28;20215;-82
2022/08/14 01:58:31;;;;;;;9.77;8.87;;;;;;;19.53;68.16;100639.97;5053502;28;20204;-82
2022/08/14 02:00:58;;;;;;;11.27;8.97;;;;;;;19.52;68.55;100632.91;5052599;28;20214;-84
2022/08/14 02:03:30;;;;;;;10.33;9.43;;;;;;;19.50;68.51;100619.56;5049057;28;20236;-82
2022/08/14 02:05:58;;;;;;;10.07;9.07;;;;;;;19.47;68.83;100614.41;5053328;28;20213;-82
2022/08/14 02:08:29;;;;;;;9.13;8.33;;;;;;;19.48;68.75;100618.81;5060150;28;20222;-84
2022/08/14 02:13:40;;;;;;;9.13;8.33;;;;;;;19.47;68.93;100617.13;5052455;28;20218;-82
2022/08/14 02:16:06;;;;;;;9.27;8.33;;;;;;;19.47;68.93;100617.13;5056442;28;20575;-82
2022/08/14 02:18:34;;;;;;;8.83;8.13;;;;;;;19.45;68.77;100610.16;5047379;28;20204;-83
2022/08/14 02:21:02;;;;;;;9.33;8.53;;;;;;;19.46;69.21;100617.28;5046218;28;20252;-82
2022/08/14 02:23:28;;;;;;;9.47;8.70;;;;;;;19.42;68.44;100606.78;5057663;28;20224;-82
2022/08/14 02:25:55;;;;;;;8.90;8.20;;;;;;;19.33;67.84;100613.13;5049841;28;20302;-82
2022/08/14 02:28:22;;;;;;;9.17;8.20;;;;;;;19.19;67.81;100610.94;5054948;28;20654;-84
2022/08/14 02:30:50;;;;;;;8.97;8.17;;;;;;;19.08;67.82;100608.47;5053323;28;20224;-84
2022/08/14 02:33:17;;;;;;;8.47;7.63;;;;;;;19.03;68.30;100602.66;5053008;28;20218;-83
2022/08/14 02:35:44;;;;;;;8.70;7.97;;;;;;;19.01;68.56;100601.97;5056589;28;20209;-83
2022/08/14 02:38:11;;;;;;;8.43;7.67;;;;;;;19.02;68.87;100606.38;5049682;28;20801;-82
2022/08/14 02:40:37;;;;;;;9.50;8.53;;;;;;;19.03;68.88;100600.81;5055685;28;20206;-82
2022/08/14 02:43:05;;;;;;;8.23;7.53;;;;;;;19.06;69.32;100603.22;5051194;28;20232;-82
2022/08/14 02:45:33;;;;;;;10.33;9.37;;;;;;;19.10;69.51;100606.47;5039589;28;20314;-82
2022/08/14 02:48:05;;;;;;;10.13;8.97;;;;;;;19.13;69.96;100598.06;5055990;28;20210;-83
2022/08/14 02:50:32;;;;;;;9.47;8.67;;;;;;;19.12;70.07;100603.63;5046157;28;20657;-82
2022/08/14 02:52:59;;;;;;;9.80;8.80;;;;;;;19.08;69.84;100597.66;5055179;28;20278;-82
2022/08/14 02:55:26;;;;;;;8.93;8.03;;;;;;;19.06;70.13;100594.28;5044260;28;20707;-84
2022/08/14 02:57:53;;;;;;;9.07;8.27;;;;;;;18.99;69.96;100587.78;5054354;28;20202;-83
2022/08/14 03:00:21;;;;;;;9.27;8.37;;;;;;;18.92;70.10;100584.00;5051335;28;20222;-82
2022/08/14 03:02:49;;;;;;;9.50;8.70;;;;;;;18.87;70.18;100589.00;5055596;28;20319;-82
2022/08/14 03:05:17;;;;;;;8.80;7.90;;;;;;;18.85;70.34;100588.31;5046056;28;20214;-83
2022/08/14 03:07:44;;;;;;;9.80;8.80;;;;;;;18.85;70.55;100591.00;5051997;28;20222;-83
2022/08/14 03:10:11;;;;;;;9.47;8.57;;;;;;;18.86;70.69;100588.16;5048430;28;20242;-82
2022/08/14 03:12:37;;;;;;;8.63;7.93;;;;;;;18.84;70.64;100586.59;5049301;28;20217;-82
2022/08/14 03:15:12;;;;;;;9.70;8.57;;;;;;;18.82;71.06;100581.34;5054144;28;20206;-82
2022/08/14 03:17:39;;;;;;;9.67;8.87;;;;;;;18.79;70.89;100586.22;5047522;28;20206;-82
2022/08/14 03:20:06;;;;;;;9.60;8.77;;;;;;;18.72;70.55;100589.53;5050203;28;20232;-83
2022/08/14 03:22:34;;;;;;;8.40;7.60;;;;;;;18.61;70.67;100583.50;5057281;28;20225;-83
2022/08/14 03:25:01;;;;;;;8.77;7.87;;;;;;;18.53;71.29;100578.81;5055024;28;20288;-83
2022/08/14 03:27:30;;;;;;;8.67;7.97;;;;;;;18.50;71.81;100583.63;5048689;28;20284;-83
2022/08/14 03:29:56;;;;;;;9.27;8.40;;;;;;;18.51;72.04;100579.94;5056169;28;20222;-83
2022/08/14 03:32:23;;;;;;;8.90;8.20;;;;;;;18.50;72.27;100562.91;5050912;28;20277;-83
2022/08/14 03:34:50;;;;;;;9.67;8.67;;;;;;;18.52;72.41;100573.56;5055553;28;20204;-84
2022/08/14 03:37:16;;;;;;;9.23;8.43;;;;;;;18.52;72.64;100571.72;5055549;28;20205;-83
2022/08/14 03:39:44;;;;;;;10.63;9.73;;;;;;;18.55;72.92;100570.56;5054844;28;20891;-83
2022/08/14 03:42:12;;;;;;;10.73;9.47;;;;;;;18.55;72.91;100568.72;5057898;28;20227;-82
2022/08/14 03:44:42;;;;;;;10.07;9.23;;;;;;;18.56;73.15;100564.16;5057090;28;20217;-83
2022/08/14 03:47:10;;;;;;;9.30;8.40;;;;;;;18.57;73.21;100555.94;5057846;28;20202;-83
2022/08/14 03:49:37;;;;;;;9.77;8.87;;;;;;;18.58;73.40;100563.03;5054339;28;20229;-83
2022/08/14 03:52:04;;;;;;;10.17;9.27;;;;;;;18.58;73.53;100548.69;5054167;28;20713;-83
2022/08/14 03:54:34;;;;;;;10.90;9.90;;;;;;;18.58;73.78;100560.34;5057249;28;20212;-83
2022/08/14 03:57:03;;;;;;;11.37;10.37;;;;;;;18.57;73.91;100555.94;5058905;28;20624;-82
2022/08/14 03:59:30;;;;;;;10.70;9.63;;;;;;;18.53;73.71;100549.13;5056288;28;20226;-82
2022/08/14 04:01:57;;;;;;;10.63;9.50;;;;;;;18.49;73.87;100547.72;5049715;28;20304;-82
2022/08/14 04:04:23;;;;;;;10.70;9.70;;;;;;;18.45;74.19;100551.72;5048314;28;20201;-83
2022/08/14 04:06:50;;;;;;;11.47;9.77;;;;;;;18.40;74.45;100543.25;5047965;28;20296;-82
2022/08/14 04:09:17;;;;;;;10.67;9.57;;;;;;;18.39;74.78;100541.56;5047990;28;20224;-83
2022/08/14 04:11:44;;;;;;;11.47;10.27;;;;;;;18.37;74.96;100541.69;5051550;28;20686;-83
2022/08/14 04:14:13;;;;;;;9.80;8.80;;;;;;;18.32;74.90;100538.59;5043046;28;20204;-82
2022/08/14 04:16:46;;;;;;;10.10;9.20;;;;;;;18.26;74.99;100541.06;5061344;28;20292;-82
2022/08/14 04:19:17;;;;;;;10.67;9.67;;;;;;;18.22;75.34;100542.34;5047467;28;20360;-82
2022/08/14 04:21:44;;;;;;;11.40;10.33;;;;;;;18.20;75.69;100542.50;5051903;28;20213;-82
2022/08/14 04:24:12;;;;;;;10.97;9.93;;;;;;;18.17;75.78;100541.94;5040150;28;20674;-84
2022/08/14 04:26:39;;;;;;;11.07;10.07;;;;;;;18.14;75.95;100540.38;5047872;28;20212;-83
2022/08/14 04:29:06;;;;;;;11.50;10.50;;;;;;;18.11;76.21;100537.97;5047519;28;20232;-84
2022/08/14 04:31:34;;;;;;;11.10;10.03;;;;;;;18.09;76.33;100533.75;5054855;28;20228;-84
2022/08/14 04:34:02;;;;;;;12.07;10.97;;;;;;;18.05;76.49;100538.59;5057654;28;20208;-84
2022/08/14 04:36:29;;;;;;;11.33;10.33;;;;;;;18.02;76.68;100534.34;5054612;28;20212;-84
2022/08/14 04:44:38;;;;;;;10.60;9.57;;;;;;;18.01;77.01;100545.28;5008230;28;20286;-84
2022/08/14 04:49:50;;;;;;;11.43;10.43;;;;;;;18.03;76.99;100529.81;5034545;28;20239;-84
2022/08/14 04:52:16;;;;;;;12.37;11.00;;;;;;;18.05;77.03;100530.50;5051872;28;20221;-84
2022/08/14 04:54:43;;;;;;;11.80;10.80;;;;;;;18.08;77.19;100534.75;5052382;28;20210;-84
2022/08/14 04:57:13;;;;;;;12.10;11.00;;;;;;;18.11;77.58;100518.25;5054690;28;20213;-83
2022/08/14 04:59:40;;;;;;;11.73;10.73;;;;;;;18.13;77.78;100519.81;5051204;28;20202;-84
2022/08/14 05:02:08;;;;;;;12.37;11.27;;;;;;;18.18;77.88;100516.69;5049651;28;20241;-84
2022/08/14 05:04:35;;;;;;;12.80;11.60;;;;;;;18.19;77.96;100503.06;5053431;28;20218;-84
2022/08/14 05:07:02;;;;;;;11.93;10.80;;;;;;;18.24;78.00;100505.31;5057038;28;20232;-84
2022/08/14 05:09:28;;;;;;;12.67;11.57;;;;;;;18.26;78.15;100508.72;5052073;28;20286;-84
2022/08/14 05:11:55;;;;;;;14.63;12.47;;;;;;;18.29;78.32;100513.78;5053198;28;20231;-85
2022/08/14 05:14:22;;;;;;;13.37;12.17;;;;;;;18.32;78.25;100508.09;5054062;28;20210;-84
2022/08/14 05:16:48;;;;;;;11.93;10.83;;;;;;;18.33;78.56;100501.69;5053474;28;20580;-84
2022/08/14 05:19:16;;;;;;;13.53;12.33;;;;;;;18.36;78.66;100504.09;5051845;28;20833;-82
2022/08/14 05:21:43;;;;;;;12.90;11.70;;;;;;;18.38;78.83;100496.72;5052179;28;20199;-82
2022/08/14 05:24:11;;;;;;;13.57;12.27;;;;;;;18.40;78.88;100502.81;5054777;28;20701;-83
2022/08/14 05:26:43;;;;;;;11.97;10.97;;;;;;;18.44;79.00;100504.22;5052322;28;20204;-82
2022/08/14 05:29:09;;;;;;;12.80;11.60;;;;;;;18.48;78.96;100499.34;5048776;28;20681;-83
2022/08/14 05:31:37;;;;;;;12.80;11.67;;;;;;;18.52;79.16;100506.13;5055318;28;20801;-83
2022/08/14 05:34:03;;;;;;;13.47;11.90;;;;;;;18.59;79.35;100499.19;5054619;28;20205;-82
2022/08/14 05:36:32;;;;;;;12.60;11.33;;;;;;;18.66;79.56;100506.50;5055472;28;20217;-84
2022/08/14 05:38:58;;;;;;;14.23;13.03;;;;;;;18.71;79.39;100498.78;5050423;28;20216;-84
2022/08/14 05:41:25;;;;;;;12.63;11.53;;;;;;;18.78;79.23;100499.03;5058070;28;20199;-84
2022/08/14 05:43:52;;;;;;;12.93;11.83;;;;;;;18.84;79.12;100484.91;5053951;28;20229;-84
2022/08/14 05:46:21;;;;;;;13.80;12.47;;;;;;;18.92;79.11;100482.31;5052466;28;20208;-83
2022/08/14 05:48:48;;;;;;;13.30;12.13;;;;;;;19.03;79.08;100490.16;5053586;28;20215;-83
2022/08/14 05:51:15;;;;;;;13.27;12.07;;;;;;;19.13;78.85;100483.84;5054514;28;20651;-84
2022/08/14 05:53:43;;;;;;;13.50;12.30;;;;;;;19.25;78.65;100475.31;5050082;28;20280;-84
2022/08/14 05:56:10;;;;;;;12.53;11.30;;;;;;;19.35;78.37;100469.81;5050340;28;20300;-83
2022/08/14 05:58:37;;;;;;;12.13;10.93;;;;;;;19.46;78.03;100471.44;5049276;28;20208;-82
2022/08/14 06:01:04;;;;;;;11.53;10.60;;;;;;;19.58;77.83;100476.44;5047940;28;20202;-82
2022/08/14 06:03:30;;;;;;;12.17;11.07;;;;;;;19.71;77.76;100474.13;5049388;28;20237;-83
2022/08/14 06:05:57;;;;;;;11.83;10.73;;;;;;;19.83;77.52;100474.72;5042452;28;20295;-83
2022/08/14 06:08:25;;;;;;;12.50;11.40;;;;;;;19.97;76.86;100470.56;5047707;28;20207;-82
2022/08/14 06:11:02;;;;;;;12.40;11.30;;;;;;;20.08;76.60;100471.09;5045498;28;20229;-85
2022/08/14 06:13:29;;;;;;;12.40;11.30;;;;;;;20.21;76.19;100464.41;5045041;28;20853;-81
2022/08/14 06:15:55;;;;;;;11.47;10.27;;;;;;;20.31;75.37;100451.59;5046182;28;20207;-83
2022/08/14 06:18:22;;;;;;;11.00;10.03;;;;;;;20.43;75.11;100455.72;5052126;28;20200;-84
2022/08/14 06:20:48;;;;;;;10.60;9.70;;;;;;;20.54;74.85;100452.72;5046426;28;20237;-84
2022/08/14 06:23:15;;;;;;;11.03;10.07;;;;;;;20.68;74.58;100448.50;5049736;28;20220;-84
2022/08/14 06:25:43;;;;;;;9.90;8.97;;;;;;;20.83;74.31;100448.66;5049124;28;20199;-84
2022/08/14 06:28:16;;;;;;;11.37;9.80;;;;;;;20.98;73.66;100438.88;5050279;28;20208;-84
2022/08/14 06:30:42;;;;;;;10.03;9.17;;;;;;;21.12;72.95;100446.31;5058289;28;20242;-86
2022/08/14 06:33:09;;;;;;;9.47;8.53;;;;;;;21.25;72.48;100443.13;5056491;28;20214;-86
2022/08/14 06:35:35;;;;;;;11.00;8.77;;;;;;;21.41;72.18;100438.53;5058166;28;20209;-86
2022/08/14 06:38:02;;;;;;;10.02;8.60;;;;;;;21.59;71.42;100442.91;5056113;28;20323;-84
2022/08/14 06:40:31;;;;;;;9.05;8.25;;;;;;;21.73;70.53;100448.44;5055705;28;20276;-83
2022/08/14 06:43:00;;;;;;;9.02;8.23;;;;;;;21.90;69.81;100451.94;5052835;28;20754;-83
2022/08/14 06:45:29;;;;;;;9.32;8.32;;;;;;;22.02;68.97;100450.59;5058798;28;20668;-83
2022/08/14 06:47:55;;;;;;;9.05;8.18;;;;;;;22.16;68.37;100444.41;5050899;28;20202;-82
2022/08/14 06:50:23;;;;;;;9.30;8.40;;;;;;;22.31;68.13;100440.94;5049480;28;20225;-82
2022/08/14 06:52:50;;;;;;;9.85;8.60;;;;;;;22.47;67.83;100444.41;5050749;28;20229;-81
2022/08/14 06:55:17;;;;;;;8.13;7.43;;;;;;;22.64;67.40;100444.28;5054361;28;20636;-80
2022/08/14 06:57:47;;;;;;;8.77;8.07;;;;;;;22.79;66.54;100443.38;5046968;28;20649;-80
2022/08/14 07:00:17;;;;;;;8.80;8.00;;;;;;;22.96;65.90;100440.53;5058803;28;20204;-81
2022/08/14 07:05:48;;;;;;;8.48;7.78;;;;;;;23.24;65.03;100438.94;5054197;28;20200;-81
2022/08/14 07:08:17;;;;;;;8.93;8.13;;;;;;;23.41;64.55;100442.34;5055046;28;20288;-81
2022/08/14 07:10:44;;;;;;;8.00;7.30;;;;;;;23.54;64.23;100435.25;5046367;28;20234;-81
2022/08/14 07:13:12;;;;;;;8.45;7.63;;;;;;;23.70;64.13;100422.50;5058572;28;20696;-81
2022/08/14 07:15:40;;;;;;;9.18;8.10;;;;;;;23.89;63.63;100424.66;5051258;28;20686;-81
2022/08/14 07:18:10;;;;;;;8.13;7.43;;;;;;;24.03;62.63;100418.34;5055093;28;20213;-81
2022/08/14 07:20:38;;;;;;;8.07;7.47;;;;;;;24.21;62.00;100432.38;5056256;28;20205;-82
2022/08/14 07:23:05;;;;;;;7.93;7.22;;;;;;;24.35;61.47;100422.56;5060786;28;20233;-82
2022/08/14 07:25:33;;;;;;;8.32;7.55;;;;;;;24.51;61.24;100425.03;5061026;28;20570;-82
2022/08/14 07:28:00;;;;;;;8.40;7.60;;;;;;;24.69;61.54;100430.03;5057236;28;20202;-82
2022/08/14 07:30:27;;;;;;;8.73;7.95;;;;;;;24.85;60.58;100426.22;5057480;28;20244;-81
2022/08/14 07:32:54;;;;;;;8.05;7.43;;;;;;;25.00;60.07;100434.34;5060564;28;20229;-81
2022/08/14 07:35:22;;;;;;;8.13;7.53;;;;;;;25.16;59.84;100432.19;5060038;28;20228;-81
2022/08/14 07:37:48;;;;;;;8.77;8.00;;;;;;;25.31;59.21;100432.09;5052068;28;20209;-82
2022/08/14 07:40:16;;;;;;;8.48;7.88;;;;;;;25.45;58.71;100433.00;5055390;28;20204;-82
2022/08/14 07:42:43;;;;;;;8.50;7.70;;;;;;;25.58;58.64;100427.69;5065218;28;20324;-81
2022/08/14 07:45:10;;;;;;;8.55;7.75;;;;;;;25.71;57.52;100426.94;5061194;28;20209;-81
2022/08/14 07:47:40;;;;;;;7.97;7.38;;;;;;;25.81;57.26;100421.94;5057578;28;20208;-82
2022/08/14 07:50:12;;;;;;;8.35;7.75;;;;;;;25.91;56.85;100434.19;5051720;28;20220;-81
2022/08/14 07:52:41;;;;;;;8.40;7.57;;;;;;;26.01;56.38;100430.22;5054115;28;20227;-82
2022/08/14 07:55:08;;;;;;;8.63;7.93;;;;;;;26.14;56.50;100428.44;5054910;28;20612;-82
2022/08/14 07:57:37;;;;;;;8.40;7.65;;;;;;;26.27;55.45;100433.09;5055773;28;20211;-82
2022/08/14 08:00:07;;;;;;;9.15;7.65;;;;;;;26.42;55.13;100432.97;5056313;28;20711;-82
2022/08/14 08:02:34;;;;;;;8.68;7.95;;;;;;;26.52;54.54;100422.47;5056230;28;20231;-82
2022/08/14 08:05:02;;;;;;;8.45;7.70;;;;;;;26.63;54.20;100430.06;5050686;28;20206;-82
2022/08/14 08:07:31;;;;;;;8.95;8.25;;;;;;;26.72;53.80;100417.91;5058027;28;20698;-81
2022/08/14 08:10:29;;;;;;;8.20;7.50;;;;;;;26.83;53.53;100427.38;5041135;28;20226;-81
2022/08/14 08:12:50;;;;;;;9.27;8.48;;;;;;;26.95;52.82;100423.84;5048533;28;20236;-81
2022/08/14 08:15:17;;;;;;;9.63;8.13;;;;;;;27.06;52.73;100430.56;5050750;28;20199;-82
2022/08/14 08:17:44;;;;;;;9.02;7.93;;;;;;;27.17;51.94;100426.38;5052127;28;20228;-81
2022/08/14 08:20:15;;;;;;;8.68;7.90;;;;;;;27.23;51.85;100428.28;5048912;28;20671;-81
2022/08/14 08:22:42;;;;;;;8.27;7.57;;;;;;;27.28;51.70;100420.25;5056027;28;20763;-80
2022/08/14 08:25:11;;;;;;;8.73;8.02;;;;;;;27.37;51.84;100429.94;5053160;28;20288;-82
2022/08/14 08:27:37;;;;;;;9.25;8.45;;;;;;;27.44;51.21;100433.50;5052929;28;20209;-81
2022/08/14 08:30:07;;;;;;;9.57;8.25;;;;;;;27.51;51.08;100433.50;5050637;28;20688;-81
2022/08/14 08:32:39;;;;;;;8.43;7.68;;;;;;;27.61;50.62;100415.63;5048447;28;20710;-81
2022/08/14 08:35:09;;;;;;;9.45;8.50;;;;;;;27.72;50.46;100419.59;5050766;28;20198;-81
2022/08/14 08:37:36;;;;;;;8.23;7.60;;;;;;;27.85;50.83;100418.72;5058295;28;20207;-81
2022/08/14 08:40:03;;;;;;;8.45;7.85;;;;;;;27.94;49.78;100410.06;5051589;28;20400;-81
2022/08/14 08:42:31;;;;;;;8.32;7.63;;;;;;;28.06;50.08;100404.75;5056252;28;20311;-81
2022/08/14 08:44:58;;;;;;;9.23;7.50;;;;;;;28.18;49.27;100400.25;5053378;28;20201;-81
2022/08/14 08:47:25;;;;;;;8.13;7.50;;;;;;;28.25;48.56;100406.59;5051768;28;20596;-82
2022/08/14 08:49:52;;;;;;;8.23;7.28;;;;;;;28.34;48.46;100404.44;5047039;28;20275;-82
2022/08/14 08:52:20;;;;;;;7.97;7.35;;;;;;;28.45;48.45;100406.50;5049911;28;20308;-82
2022/08/14 08:54:53;;;;;;;7.85;7.10;;;;;;;28.58;47.89;100394.59;5053170;28;20209;-82
2022/08/14 08:57:20;;;;;;;8.00;7.28;;;;;;;28.67;47.55;100388.63;5052138;28;20200;-81
2022/08/14 08:59:48;;;;;;;8.43;7.65;;;;;;;28.78;47.32;100386.25;5058283;28;20233;-81
2022/08/14 09:02:17;;;;;;;7.72;7.00;;;;;;;28.86;46.19;100381.34;5056249;28;20237;-81
2022/08/14 09:04:44;;;;;;;7.47;6.78;;;;;;;28.86;46.08;100386.84;5046094;28;20211;-81
2022/08/14 09:07:12;;;;;;;6.97;6.38;;;;;;;28.88;45.78;100383.88;5044960;28;20197;-81
2022/08/14 09:09:50;;;;;;;7.07;6.38;;;;;;;28.87;45.83;100388.50;5051558;28;20209;-81
2022/08/14 09:12:17;;;;;;;7.60;6.80;;;;;;;28.89;45.58;100380.91;5039644;28;20217;-82
2022/08/14 09:14:46;;;;;;;8.68;7.50;;;;;;;28.88;45.88;100373.75;5053824;28;20202;-81
2022/08/14 09:17:14;;;;;;;7.07;6.53;;;;;;;28.89;45.45;100367.19;5047358;28;20282;-82
2022/08/14 09:19:41;;;;;;;7.50;6.90;;;;;;;28.95;45.51;100362.72;5057445;28;20228;-81
2022/08/14 09:22:09;;;;;;;7.35;6.65;;;;;;;29.01;45.35;100365.44;5056078;28;20228;-82
2022/08/14 09:24:36;;;;;;;6.82;6.22;;;;;;;29.08;44.75;100367.25;5057973;28;20273;-81
2022/08/14 09:27:03;;;;;;;6.60;6.10;;;;;;;29.08;45.01;100354.38;5040571;28;20655;-81
2022/08/14 09:29:30;;;;;;;6.97;6.38;;;;;;;29.14;45.31;100360.88;5051364;28;20681;-82
2022/08/14 09:32:00;;;;;;;7.28;6.75;;;;;;;29.19;44.92;100359.16;5041073;28;20225;-81
2022/08/14 09:34:45;;;;;;;9.07;6.95;;;;;;;29.26;44.42;100353.56;5046931;28;20204;-81
2022/08/14 09:37:28;;;;;;;6.80;6.20;;;;;;;29.33;44.84;100357.09;5043298;28;20683;-82
2022/08/14 09:40:04;;;;;;;7.35;6.43;;;;;;;29.43;44.54;100346.47;5048605;28;20209;-81
2022/08/14 09:42:42;;;;;;;7.25;6.60;;;;;;;29.55;44.53;100339.19;5055226;28;20224;-82
2022/08/14 09:45:14;;;;;;;6.88;6.28;;;;;;;29.67;43.58;100333.75;5057966;28;20205;-82
2022/08/14 09:47:43;;;;;;;7.28;6.68;;;;;;;29.75;43.53;100329.84;5057443;28;20569;-81
2022/08/14 09:50:20;;;;;;;7.18;6.60;;;;;;;29.87;42.78;100323.38;5055178;28;20204;-82
2022/08/14 09:52:53;;;;;;;7.10;6.50;;;;;;;30.02;43.57;100322.97;5060233;28;20231;-81
2022/08/14 09:55:21;;;;;;;7.40;6.80;;;;;;;30.14;42.92;100318.38;5054656;28;20220;-82
2022/08/14 09:57:47;;;;;;;7.90;7.10;;;;;;;30.20;42.09;100325.69;5058409;28;20205;-82
2022/08/14 10:00:18;;;;;;;7.38;6.53;;;;;;;30.28;41.73;100314.34;5054401;28;20205;-82
2022/08/14 10:02:56;;;;;;;7.57;6.88;;;;;;;30.36;41.88;100307.69;5058738;28;20233;-81
2022/08/14 10:05:33;;;;;;;6.95;6.35;;;;;;;30.39;41.58;100304.47;5064643;28;20484;-81
2022/08/14 10:08:01;;;;;;;7.40;6.55;;;;;;;30.39;41.39;100307.22;5054695;28;20198;-82
2022/08/14 10:10:31;;;;;;;7.03;6.45;;;;;;;30.42;41.30;100306.75;5052989;28;20294;-82
2022/08/14 10:12:59;;;;;;;6.75;6.20;;;;;;;30.42;41.30;100293.03;5062724;28;20617;-81
2022/08/14 10:15:28;;;;;;;7.68;7.07;;;;;;;30.44;41.61;100301.88;5059637;28;20565;-81
2022/08/14 10:18:08;;;;;;;6.40;5.80;;;;;;;30.49;41.14;100292.91;5060653;28;20209;-81
2022/08/14 10:20:41;;;;;;;7.68;6.40;;;;;;;30.56;41.54;100294.50;5056018;28;20202;-81
2022/08/14 10:23:16;;;;;;;6.30;5.80;;;;;;;30.64;40.93;100296.06;5060989;28;20221;-81
2022/08/14 10:25:45;;;;;;;6.75;6.10;;;;;;;30.67;40.53;100298.34;5059995;28;20281;-81
2022/08/14 10:28:14;;;;;;;6.55;5.97;;;;;;;30.72;40.49;100298.47;5055175;28;20202;-82
2022/08/14 10:30:41;;;;;;;7.80;6.55;;;;;;;30.71;39.68;100291.31;5059181;28;20232;-82
2022/08/14 10:33:08;;;;;;;6.60;5.85;;;;;;;30.70;39.34;100290.47;5054776;28;20228;-81
2022/08/14 10:35:44;;;;;;;6.45;5.85;;;;;;;30.78;40.20;100286.53;5056277;28;20269;-82
2022/08/14 10:38:11;;;;;;;7.22;6.53;;;;;;;30.86;40.04;100277.91;5055538;28;20385;-82
2022/08/14 10:40:38;;;;;;;6.35;5.90;;;;;;;30.94;39.37;100282.22;5057609;28;20672;-81
2022/08/14 10:43:17;;;;;;;7.00;6.28;;;;;;;31.01;39.80;100281.03;5055761;28;20228;-81
2022/08/14 10:45:53;;;;;;;7.20;6.50;;;;;;;31.07;39.05;100269.06;5056284;28;20194;-80
2022/08/14 10:48:20;;;;;;;6.93;6.32;;;;;;;31.11;38.97;100271.38;5060895;28;20208;-81
2022/08/14 10:50:50;;;;;;;6.38;5.85;;;;;;;31.16;38.89;100263.25;5067878;28;20228;-81
2022/08/14 10:53:27;;;;;;;7.35;6.68;;;;;;;31.23;39.02;100256.53;5055485;28;20253;-81
2022/08/14 10:55:59;;;;;;;7.18;6.57;;;;;;;31.28;38.52;100259.38;5056915;28;20205;-81
2022/08/14 10:58:29;;;;;;;6.80;6.20;;;;;;;31.28;38.23;100253.03;5057660;28;20202;-81
2022/08/14 11:00:57;;;;;;;7.20;6.60;;;;;;;31.31;37.85;100249.81;5058596;28;20202;-81
2022/08/14 11:03:24;;;;;;;6.95;6.32;;;;;;;31.33;38.31;100242.16;5053927;28;20715;-81
2022/08/14 11:05:52;;;;;;;7.00;6.40;;;;;;;31.38;38.61;100240.31;5049220;28;20213;-81
2022/08/14 11:08:31;;;;;;;7.18;6.57;;;;;;;31.48;38.56;100230.63;5055112;28;20208;-81
2022/08/14 11:11:00;;;;;;;6.95;6.45;;;;;;;31.53;38.57;100223.28;5060307;28;20220;-81
2022/08/14 11:13:29;;;;;;;7.20;6.60;;;;;;;31.59;37.97;100227.81;5057177;28;20252;-81
2022/08/14 11:15:59;;;;;;;7.07;6.47;;;;;;;31.62;37.67;100224.59;5053442;28;20873;-81
2022/08/14 11:18:27;;;;;;;7.22;6.60;;;;;;;31.68;38.08;100231.91;5053418;28;20285;-81
2022/08/14 11:20:58;;;;;;;6.97;6.30;;;;;;;31.74;37.39;100225.41;5058374;28;20204;-81
2022/08/14 11:23:27;;;;;;;7.45;6.85;;;;;;;31.78;37.13;100222.16;5064806;28;20255;-81
2022/08/14 11:25:56;;;;;;;7.63;7.00;;;;;;;31.81;36.69;100224.41;5056635;28;20234;-81
2022/08/14 11:28:25;;;;;;;7.78;6.97;;;;;;;31.82;36.68;100217.84;5046207;28;20222;-81
2022/08/14 11:30:52;;;;;;;7.75;6.63;;;;;;;31.83;36.88;100216.75;5056124;28;20256;-81
2022/08/14 11:33:23;;;;;;;7.40;6.80;;;;;;;31.83;36.79;100216.75;5053909;28;20218;-81
2022/08/14 11:35:50;;;;;;;7.13;6.53;;;;;;;31.86;37.10;100213.50;5053449;28;20267;-81
2022/08/14 11:38:18;;;;;;;7.03;6.53;;;;;;;31.91;36.87;100210.81;5054163;28;20205;-81
2022/08/14 11:40:45;;;;;;;7.38;6.80;;;;;;;31.95;36.79;100214.75;5048793;28;20213;-81
2022/08/14 11:43:12;;;;;;;7.32;6.72;;;;;;;31.96;37.27;100203.50;5061410;28;20229;-81
2022/08/14 11:45:40;;;;;;;7.28;6.68;;;;;;;32.05;37.07;100203.94;5063549;28;20200;-81